Карточка аэропорта UHBB

Внимание!
Информация на этой странице в стадии наполнения.
Если вы не увидели какой-то информации, или заметили неточность - пожалуйста сообщите нам!
Спасибо!
Команда RU-STAFF
Название аэропортаИгнатьево
Название аэропорта (англ.)Ignatyevo
Превышение640 ft. (195.1 m.)
Координаты50°25.536', 127°24.72'
Высота перехода900m
Эшелон переходаFL060 (<1013 hpa / 760 mm); FL070 (<977 hpa / 733 mm)
Коды ответчика1601-1617
Зона ОрВДХабаровск РПИ (UHHH)
Данные METARUHBB 281730Z 35006MPS 3200 -SN DRSN BKN033 M18/M20 Q1017 R36/810150 NOSIG RMK QFE745/0993
Проноз погоды (TAF)UHBB 281358Z 2815/2915 01003G08MPS 3100 -SHSN BKN011 BKN020CB FM282000 33006G12MPS 2100 -SHSN DRSN BKN009 BKN020CB TEMPO 2820/2902 1000 SHSN BLSN BKN005 BKN015CB BECMG 2902/2904 3100 -SHSN DRSN SCT011 BKN033CB
NOTAMshow/hide NOTAM
AWOS   TABLE

Информация о ВПП

ВПП Длина ВПП (м.) Покрытие Курс ВПП Частота ILS
182800Асфальтобетон180 
362800Асфальтобетон360108.7

Диспетчерские позиции

Позывной Наименование органа УВД Частота
UHBB_TWRБлаговещенск-Вышка127.2



Спутниковое изображение